Nearby METAR Reports

 

KSJC - San Jose, California, USA
Distance from station: NE 14km
Updated: 19/01/2020 06:53
Mostly cloudy
Mostly cloudy
 Wind from E
Wind: E 6 km/h
Temperature: 7°C
Dew Point: 4°C
Humidity: 81%
Barometer: 1025.4 hPa
Clouds: Mostly cloudy
Visibility: 16 km
Cloud details: Mostly cloudy 4877 m
2020/01/19 06:53 KSJC 190653Z 10003KT 10SM BKN160 07/04 A3028 RMK AO2 SLP252 T00720039 $
KNUQ - Moffett Nas/Mtn, California, USA
Distance from station: N 14km
Updated: 21/11/2019 16:56
NOT Current

 
Barometer: 1011.2 hPa
2019/11/21 16:56 KNUQ 211656Z AUTO A2986 RMK AO2 SLP116 PWINO $
 
KPAO - Palo Alto, California, USA
Distance from station: NNW 23km
Updated: 19/01/2020 04:47
NOT Current
Mostly cloudy
Mostly cloudy
 Wind from NE
Wind: NE 20 km/h
Temperature: 10°C
Wind Chill: 7°C
Dew Point: 3°C
Humidity: 62%
Barometer: 1026.4 hPa
Clouds: Mostly cloudy
Visibility: 16 km
Cloud details: Mostly cloudy 5486 m
2020/01/19 04:47 KPAO 190447Z 04011KT 10SM BKN180 10/03 A3031 RMK LAST
KRHV - San Jose/Reid, California, USA
Distance from station: ENE 19km
Updated: 19/01/2020 05:47
NOT Current
Partly cloudy
Partly cloudy
 Wind from calm
Wind: Calm
Temperature: 7°C
Dew Point: 4°C
Humidity: 81%
Barometer: 1025.7 hPa
Clouds: Partly cloudy
Visibility: 16 km
Cloud details: Partly cloudy 5182 m
2020/01/19 05:47 KRHV 190547Z 00000KT 10SM SCT170 07/04 A3029
 
KOAK - Oakland, California, USA
Distance from station: NNW 50km
Updated: 19/01/2020 06:53
Mostly cloudy
Mostly cloudy
 Wind from ESE
Wind: ESE 11 km/h
Temperature: 9°C
Wind Chill: 7°C
Dew Point: 2°C
Humidity: 62%
Barometer: 1025.7 hPa
Clouds: Mostly cloudy
Visibility: 16 km
Cloud details: Few Clouds 5486 m
Mostly cloudy 6096 m
2020/01/19 06:53 KOAK 190653Z 11006KT 10SM FEW180 BKN200 09/02 A3029 RMK AO2 SLP256 T00940022
KSQL - San Carlos Airpo, California, USA
Distance from station: NW 34km
Updated: 19/01/2020 07:35
Clear
Clear
 Wind from calm
Wind: Calm
Temperature: 8°C
Dew Point: 3°C
Humidity: 71%
Barometer: 1025.4 hPa
Clouds: Clear
Visibility: 16 km
2020/01/19 07:35 KSQL 190735Z AUTO 00000KT 10SM CLR 08/03 A3028 RMK AO2
 
KSFO - San Francisco, California, USA
Distance from station: NW 49km
Updated: 19/01/2020 06:56
Partly cloudy
Partly cloudy
 Wind from ESE
Wind: ESE 11 km/h
Temperature: 10°C
Wind Chill: 8°C
Dew Point: 3°C
Humidity: 62%
Barometer: 1025.4 hPa
Clouds: Partly cloudy
Visibility: 16 km
Cloud details: Partly cloudy 5182 m
2020/01/19 06:56 KSFO 190656Z 12006KT 10SM SCT170 10/03 A3028 RMK AO2 SLP252 T01000033
KE16 - San Martin, California, USA
Distance from station: ESE 43km
Updated: 14/11/2019 09:35
NOT Current
Overcast
Overcast
 Wind from SE
Wind: SE 11 km/h
Temperature: 12°C
Dew Point: 10°C
Humidity: 88%
Barometer: 1017.6 hPa
Clouds: Overcast
Visibility: 16 km
Cloud details: Overcast 427 m
2019/11/14 09:35 KE16 140935Z AUTO 13006KT 10SM OVC014 12/10 A3005 RMK AO2
 
KWVI - Watsonville, California, USA
Distance from station: SSE 44km
Updated: 19/01/2020 06:53
Clear
Clear
 Wind from ENE
Wind: ENE 11 km/h
Temperature: 11°C
Dew Point: 2°C
Humidity: 54%
Barometer: 1024.4 hPa
Clouds: Clear
Visibility: 16 km
2020/01/19 06:53 KWVI 190653Z AUTO 07006KT 10SM CLR 11/02 A3025 RMK AO2 SLP242 T01110017
KHAF - Half Moon Bay, California, USA
Distance from station: WNW 50km
Updated: 19/01/2020 07:40
Clear
Clear
 Wind from calm
Wind: Calm
Temperature: 10°C
Dew Point: -3°C
Humidity: 40%
Barometer: 1023.7 hPa
Clouds: Clear
Visibility: 16 km
2020/01/19 07:40 KHAF 190740Z AUTO 00000KT 10SM CLR 10/M03 A3023 RMK AO2
 
KHWD - Hayward, California, USA
Distance from station: N 44km
Updated: 19/01/2020 06:54
Clear
Clear
 Wind from NE
Wind: NE 7 km/h
Temperature: 9°C
Wind Chill: 8°C
Dew Point: 3°C
Humidity: 66%
Barometer: 1025.1 hPa
Clouds: Clear
Visibility: 16 km
2020/01/19 06:54 KHWD 190654Z 05004KT 10SM CLR 09/03 A3027 RMK AO2 SLP261 T00890028
KLVK - Livermore, California, USA
Distance from station: NNE 51km
Updated: 19/01/2020 06:53
Clear
Clear
 Wind from ENE
Wind: ENE 11 km/h
Temperature: 6°C
Wind Chill: 4°C
Dew Point: 3°C
Humidity: 81%
Barometer: 1025.7 hPa
Clouds: Clear
Visibility: 16 km
2020/01/19 06:53 KLVK 190653Z AUTO 07006KT 10SM CLR 06/03 A3029 RMK AO2 SLP256 T00610028